createdAt,value
2022-11-24T00:00:19.333Z,6.28
2022-11-24T00:02:47.278Z,6.45
2022-11-24T00:05:15.279Z,5.18
2022-11-24T00:07:43.507Z,6.50
2022-11-24T00:10:11.453Z,7.18
2022-11-24T00:12:40.944Z,6.72
2022-11-24T00:15:09.030Z,7.22
2022-11-24T00:17:36.903Z,7.00
2022-11-24T00:20:05.736Z,6.75
2022-11-24T00:22:33.593Z,6.68
2022-11-24T00:25:01.459Z,5.53
2022-11-24T00:27:29.265Z,6.63
2022-11-24T00:29:59.533Z,6.60
2022-11-24T00:32:28.727Z,6.95
2022-11-24T00:34:56.600Z,6.95
2022-11-24T00:37:24.456Z,8.27
2022-11-24T00:39:52.505Z,6.78
2022-11-24T00:42:20.404Z,6.55
2022-11-24T00:44:48.539Z,6.55
2022-11-24T00:47:17.897Z,7.28
2022-11-24T00:49:45.830Z,6.70
2022-11-24T00:52:13.950Z,7.03
2022-11-24T00:54:41.980Z,7.15
2022-11-24T00:57:09.837Z,6.43
2022-11-24T00:59:37.651Z,7.50
2022-11-24T01:02:05.803Z,8.25
2022-11-24T01:04:35.402Z,8.35
2022-11-24T01:07:03.529Z,7.53
2022-11-24T01:09:31.360Z,8.10
2022-11-24T01:12:05.085Z,8.05
2022-11-24T01:14:33.878Z,6.40
2022-11-24T01:17:01.934Z,10.00
2022-11-24T01:19:29.798Z,7.82
2022-11-24T01:21:59.220Z,7.38
2022-11-24T01:24:27.132Z,8.07
2022-11-24T01:26:55.431Z,7.35
2022-11-24T01:29:23.540Z,7.20
2022-11-24T01:31:51.435Z,7.03
2022-11-24T01:34:19.676Z,7.35
2022-11-24T01:36:47.491Z,6.70
2022-11-24T01:39:17.052Z,7.78
2022-11-24T01:41:44.864Z,7.90
2022-11-24T01:44:23.334Z,7.82
2022-11-24T01:46:53.550Z,7.93
2022-11-24T01:49:22.940Z,7.57
2022-11-24T01:51:52.539Z,8.10
2022-11-24T01:54:24.545Z,8.05
2022-11-24T01:56:54.731Z,7.53
2022-11-24T01:59:22.713Z,7.72
2022-11-24T02:01:52.589Z,8.30
2022-11-24T02:04:23.780Z,8.45
2022-11-24T02:06:52.817Z,7.93
2022-11-24T02:09:24.392Z,8.32
2022-11-24T02:11:52.924Z,8.13
2022-11-24T02:14:22.069Z,8.80
2022-11-24T02:16:51.277Z,8.35
2022-11-24T02:19:22.290Z,8.60
2022-11-24T02:21:50.298Z,8.75
2022-11-24T02:24:21.181Z,9.13
2022-11-24T02:26:51.998Z,9.05
2022-11-24T02:29:20.956Z,8.82
2022-11-24T02:31:51.047Z,9.25
2022-11-24T02:34:18.938Z,7.93
2022-11-24T02:36:46.857Z,9.13
2022-11-24T02:39:15.472Z,9.20
2022-11-24T02:41:44.693Z,10.20
2022-11-24T02:44:15.652Z,9.15
2022-11-24T02:46:43.511Z,9.15
2022-11-24T02:49:11.709Z,9.30
2022-11-24T02:51:39.522Z,9.25
2022-11-24T02:54:07.751Z,9.20
2022-11-24T02:56:35.599Z,8.80
2022-11-24T02:59:03.757Z,8.82
2022-11-24T03:01:35.393Z,9.40
2022-11-24T03:04:03.286Z,9.25
2022-11-24T03:06:31.390Z,8.80
2022-11-24T03:08:59.243Z,8.73
2022-11-24T03:11:27.411Z,8.48
2022-11-24T03:13:55.372Z,7.93
2022-11-24T03:16:23.254Z,9.50
2022-11-24T03:18:53.390Z,7.65
2022-11-24T03:21:21.258Z,7.78
2022-11-24T03:23:49.110Z,8.10
2022-11-24T03:26:18.400Z,8.30
2022-11-24T03:28:46.745Z,7.05
2022-11-24T03:31:15.107Z,7.30
2022-11-24T03:33:43.096Z,7.55
2022-11-24T03:36:12.413Z,8.50
2022-11-24T03:38:40.563Z,7.15
2022-11-24T03:41:08.723Z,8.40
2022-11-24T03:43:43.193Z,8.05
2022-11-24T03:46:12.170Z,7.18
2022-11-24T03:48:40.448Z,7.45
2022-11-24T03:51:08.451Z,7.40
2022-11-24T03:53:37.937Z,7.60
2022-11-24T03:56:05.833Z,7.68
2022-11-24T03:58:33.763Z,6.95
2022-11-24T04:01:01.649Z,7.13
2022-11-24T04:03:29.470Z,7.45
2022-11-24T04:05:57.481Z,7.55
2022-11-24T04:08:25.412Z,7.28
2022-11-24T04:10:55.353Z,7.43
2022-11-24T04:13:23.678Z,6.65
2022-11-24T04:15:51.889Z,6.75
2022-11-24T04:18:20.003Z,7.15
2022-11-24T04:20:50.067Z,6.97
2022-11-24T04:23:18.590Z,6.10
2022-11-24T04:25:47.645Z,6.75
2022-11-24T04:28:17.246Z,7.25
2022-11-24T04:30:45.419Z,7.10
2022-11-24T04:33:13.588Z,7.25
2022-11-24T04:35:41.955Z,6.90
2022-11-24T04:38:09.872Z,6.05
2022-11-24T04:40:38.174Z,6.47
2022-11-24T04:43:06.337Z,5.93
2022-11-24T04:45:35.582Z,5.93
2022-11-24T04:48:03.386Z,6.43
2022-11-24T04:50:31.607Z,5.82
2022-11-24T04:52:59.510Z,5.97
2022-11-24T04:55:27.403Z,5.93
2022-11-24T04:57:55.502Z,5.90
2022-11-24T05:00:23.402Z,5.75
2022-11-24T05:02:52.670Z,6.43
2022-11-24T05:05:20.499Z,6.05
2022-11-24T05:07:48.619Z,6.63
2022-11-24T05:10:34.649Z,6.85
2022-11-24T05:13:03.211Z,5.88
2022-11-24T05:15:31.046Z,7.05
2022-11-24T05:18:00.516Z,7.35
2022-11-24T05:20:28.361Z,6.28
2022-11-24T05:22:56.159Z,7.13
2022-11-24T05:25:24.250Z,6.25
2022-11-24T05:27:52.060Z,6.20
2022-11-24T05:30:20.003Z,6.85
2022-11-24T05:32:48.234Z,6.93
2022-11-24T05:35:19.068Z,7.10
2022-11-24T05:37:47.766Z,6.38
2022-11-24T05:40:15.578Z,6.80
2022-11-24T05:42:47.615Z,6.60
2022-11-24T05:45:16.768Z,7.43
2022-11-24T05:47:45.202Z,7.15
2022-11-24T05:50:13.755Z,5.70
2022-11-24T05:52:43.079Z,6.40
2022-11-24T05:55:11.778Z,5.82
2022-11-24T05:57:39.756Z,6.30
2022-11-24T06:00:08.856Z,5.57
2022-11-24T06:02:36.855Z,6.65
2022-11-24T06:05:05.322Z,6.00
2022-11-24T06:07:33.307Z,6.13
2022-11-24T06:10:02.580Z,5.45
2022-11-24T06:12:30.617Z,6.28
2022-11-24T06:14:58.462Z,6.22
2022-11-24T06:17:26.455Z,5.88
2022-11-24T06:19:54.304Z,6.32
2022-11-24T06:22:22.448Z,5.82
2022-11-24T06:24:50.676Z,6.47
2022-11-24T06:27:20.222Z,6.75
2022-11-24T06:29:48.012Z,5.78
2022-11-24T06:32:16.055Z,5.55
2022-11-24T06:34:43.998Z,5.93
2022-11-24T06:37:11.842Z,5.35
2022-11-24T06:39:39.785Z,4.95
2022-11-24T06:42:07.661Z,5.18
2022-11-24T06:44:37.183Z,5.93
2022-11-24T06:47:05.236Z,6.22
2022-11-24T06:49:33.402Z,6.03
2022-11-24T06:52:01.223Z,5.07
2022-11-24T06:54:29.244Z,5.30
2022-11-24T06:56:58.287Z,5.22
2022-11-24T06:59:26.582Z,6.93
2022-11-24T07:01:55.790Z,8.32
2022-11-24T07:04:23.607Z,8.20
2022-11-24T07:06:51.638Z,9.43
2022-11-24T07:09:19.475Z,10.80
2022-11-24T07:11:47.283Z,10.35
2022-11-24T07:14:15.272Z,8.98
2022-11-24T07:16:43.201Z,8.70
2022-11-24T07:19:12.723Z,7.43
2022-11-24T07:21:40.521Z,6.72
2022-11-24T07:24:08.654Z,6.32
2022-11-24T07:26:37.408Z,7.03
2022-11-24T07:29:05.974Z,5.85
2022-11-24T07:31:33.937Z,7.45
2022-11-24T07:34:01.800Z,8.05
2022-11-24T07:36:31.069Z,6.20
2022-11-24T07:38:58.945Z,6.82
2022-11-24T07:41:26.750Z,6.00
2022-11-24T07:43:54.809Z,7.00
2022-11-24T07:46:22.679Z,7.13
2022-11-24T07:48:50.518Z,6.63
2022-11-24T07:51:18.368Z,8.25
2022-11-24T07:53:47.574Z,7.70
2022-11-24T07:56:15.467Z,6.97
2022-11-24T07:58:47.026Z,6.78
2022-11-24T08:01:19.283Z,7.32
2022-11-24T08:03:48.002Z,7.20
2022-11-24T08:06:26.079Z,7.28
2022-11-24T08:08:58.704Z,6.75
2022-11-24T08:11:26.641Z,6.75
2022-11-24T08:13:54.489Z,6.43
2022-11-24T08:16:22.353Z,6.85
2022-11-24T08:18:51.059Z,6.95
2022-11-24T08:21:18.865Z,6.57
2022-11-24T08:23:46.887Z,8.15
2022-11-24T08:26:18.257Z,12.32
2022-11-24T08:28:46.599Z,9.40
2022-11-24T08:31:15.091Z,5.53
2022-11-24T08:33:43.351Z,6.28
2022-11-24T08:36:12.246Z,7.20
2022-11-24T08:38:40.211Z,5.72
2022-11-24T08:41:09.051Z,6.68
2022-11-24T08:43:38.466Z,6.28
2022-11-24T08:46:07.918Z,7.50
2022-11-24T08:48:36.498Z,9.40
2022-11-24T08:51:07.482Z,9.93
2022-11-24T08:53:35.696Z,9.32
2022-11-24T08:56:04.707Z,8.88
2022-11-24T08:58:33.447Z,10.20
2022-11-24T09:01:06.522Z,8.23
2022-11-24T09:06:02.339Z,6.95
2022-11-24T09:08:30.583Z,6.88
2022-11-24T09:11:00.582Z,6.40
2022-11-24T09:13:28.597Z,8.00
2022-11-24T09:15:56.669Z,5.93
2022-11-24T09:18:30.092Z,6.20
2022-11-24T09:21:07.127Z,6.78
2022-11-24T09:23:35.048Z,5.55
2022-11-24T09:26:06.834Z,5.93
2022-11-24T09:28:34.744Z,6.68
2022-11-24T09:31:03.278Z,7.13
2022-11-24T09:33:33.036Z,7.78
2022-11-24T09:36:01.641Z,7.43
2022-11-24T09:38:29.738Z,6.25
2022-11-24T09:40:57.804Z,6.13
2022-11-24T09:43:34.668Z,6.13
2022-11-24T09:46:06.490Z,6.22
2022-11-24T09:48:37.540Z,7.25
2022-11-24T09:51:05.754Z,6.50
2022-11-24T09:53:37.457Z,6.90
2022-11-24T09:56:11.729Z,6.10
2022-11-24T09:58:43.751Z,5.47
2022-11-24T10:01:16.398Z,6.65
2022-11-24T10:03:47.303Z,6.85
2022-11-24T10:06:20.277Z,8.35
2022-11-24T10:08:55.207Z,6.53
2022-11-24T10:11:29.452Z,6.00
2022-11-24T10:14:05.591Z,5.18
2022-11-24T10:16:40.026Z,5.72
2022-11-24T10:19:15.492Z,6.28
2022-11-24T10:21:50.391Z,6.28
2022-11-24T10:24:32.390Z,7.70
2022-11-24T10:27:02.811Z,6.78
2022-11-24T10:29:34.779Z,5.50
2022-11-24T10:32:06.348Z,9.47
2022-11-24T10:34:36.267Z,6.10
2022-11-24T10:37:07.979Z,6.22
2022-11-24T10:39:37.899Z,7.38
2022-11-24T10:42:08.516Z,7.50
2022-11-24T10:44:36.348Z,5.65
2022-11-24T10:47:04.180Z,5.28
2022-11-24T10:49:33.730Z,8.32
2022-11-24T10:52:06.354Z,7.07
2022-11-24T10:54:35.886Z,7.30
2022-11-24T10:57:03.915Z,7.72
2022-11-24T10:59:33.632Z,5.70
2022-11-24T11:02:01.923Z,6.32
2022-11-24T11:04:31.147Z,4.60
2022-11-24T11:07:10.065Z,6.30
2022-11-24T11:09:38.194Z,5.55
2022-11-24T11:12:36.256Z,5.88
2022-11-24T11:15:21.364Z,5.50
2022-11-24T11:17:50.336Z,4.85
2022-11-24T11:20:19.976Z,4.78
2022-11-24T11:22:51.102Z,5.60
2022-11-24T11:25:21.020Z,4.50
2022-11-24T11:27:49.729Z,5.15
2022-11-24T11:36:10.010Z,4.28
2022-11-24T11:38:40.289Z,4.18
2022-11-24T11:41:11.180Z,3.88
2022-11-24T11:43:41.198Z,4.57
2022-11-24T11:46:12.789Z,6.88
2022-11-24T11:48:44.135Z,4.57
2022-11-24T11:51:24.352Z,5.55
2022-11-24T11:53:57.905Z,5.07
2022-11-24T11:56:26.854Z,5.30
2022-11-24T11:59:15.666Z,6.05
2022-11-24T12:01:49.738Z,6.40
2022-11-24T12:04:21.915Z,6.13
2022-11-24T12:06:57.516Z,5.23
2022-11-24T12:09:31.112Z,5.20
2022-11-24T12:12:05.674Z,5.07
2022-11-24T12:14:39.542Z,5.47
2022-11-24T12:17:09.529Z,4.70
2022-11-24T12:19:55.419Z,4.70
2022-11-24T12:22:25.937Z,4.93
2022-11-24T12:24:58.378Z,4.78
2022-11-24T12:27:31.465Z,5.82
2022-11-24T12:32:35.912Z,5.10
2022-11-24T12:35:09.859Z,4.95
2022-11-24T12:37:47.917Z,4.88
2022-11-24T12:40:21.888Z,4.38
2022-11-24T12:42:54.280Z,4.88
2022-11-24T12:45:23.684Z,5.13
2022-11-24T12:48:00.631Z,4.43
2022-11-24T12:50:29.701Z,5.50
2022-11-24T12:53:05.711Z,5.45
2022-11-24T12:55:35.097Z,5.30
2022-11-24T12:58:11.223Z,4.38
2022-11-24T13:00:44.519Z,5.60
2022-11-24T13:03:21.261Z,4.63
2022-11-24T13:05:53.888Z,4.63
2022-11-24T13:08:22.146Z,5.75
2022-11-24T13:10:56.334Z,4.03
2022-11-24T13:13:28.473Z,4.35
2022-11-24T13:19:08.594Z,4.60
2022-11-24T13:21:52.276Z,5.45
2022-11-24T13:24:24.555Z,7.22
2022-11-24T13:26:54.971Z,6.47
2022-11-24T13:29:34.135Z,6.55
2022-11-24T13:32:20.991Z,6.22
2022-11-24T13:34:55.691Z,5.25
2022-11-24T13:37:38.415Z,4.93
2022-11-24T13:40:29.813Z,5.43
2022-11-24T13:43:16.353Z,4.32
2022-11-24T13:45:52.938Z,3.80
2022-11-24T13:48:39.249Z,4.80
2022-11-24T13:51:15.457Z,3.78
2022-11-24T13:53:45.154Z,4.38
2022-11-24T13:56:22.332Z,4.00
2022-11-24T13:58:51.620Z,4.05
2022-11-24T14:01:22.820Z,4.20
2022-11-24T14:06:47.327Z,5.95
2022-11-24T14:09:24.090Z,5.43
2022-11-24T14:11:59.974Z,4.82
2022-11-24T14:14:27.854Z,6.38
2022-11-24T14:17:14.706Z,5.45
2022-11-24T14:19:43.588Z,4.93
2022-11-24T14:22:15.986Z,4.03
2022-11-24T14:24:45.521Z,4.90
2022-11-24T14:27:17.350Z,4.18
2022-11-24T14:29:55.285Z,5.20
2022-11-24T14:32:24.707Z,5.32
2022-11-24T14:34:54.081Z,5.53
2022-11-24T14:37:22.283Z,6.10
2022-11-24T14:39:50.207Z,5.38
2022-11-24T14:42:19.490Z,4.28
2022-11-24T14:44:52.811Z,3.65
2022-11-24T14:47:30.530Z,3.05
2022-11-24T14:50:06.726Z,2.80
2022-11-24T14:52:35.397Z,3.25
2022-11-24T14:55:21.869Z,3.10
2022-11-24T14:57:50.753Z,2.40
2022-11-24T15:00:20.018Z,2.55
2022-11-24T15:02:51.975Z,2.30
2022-11-24T15:05:20.779Z,3.65
2022-11-24T15:07:49.779Z,5.40
2022-11-24T15:10:20.781Z,4.72
2022-11-24T15:12:53.091Z,3.35
2022-11-24T15:15:22.385Z,3.95
2022-11-24T15:17:53.423Z,4.15
2022-11-24T15:20:24.097Z,4.03
2022-11-24T15:22:57.180Z,4.05
2022-11-24T15:27:53.396Z,4.22
2022-11-24T15:30:21.305Z,3.40
2022-11-24T15:32:49.817Z,4.07
2022-11-24T15:35:19.234Z,4.03
2022-11-24T15:37:47.114Z,4.05
2022-11-24T15:40:15.719Z,4.00
2022-11-24T15:42:44.468Z,7.10
2022-11-24T15:45:12.479Z,4.43
2022-11-24T15:47:41.186Z,4.10
2022-11-24T15:50:09.762Z,4.13
2022-11-24T15:52:39.113Z,5.55
2022-11-24T15:55:08.325Z,4.90
2022-11-24T15:57:36.346Z,5.07
2022-11-24T16:00:05.057Z,5.78
2022-11-24T16:02:33.384Z,5.97
2022-11-24T16:05:01.360Z,4.97
2022-11-24T16:07:31.965Z,4.90
2022-11-24T16:10:02.727Z,4.35
2022-11-24T16:12:30.769Z,5.10
2022-11-24T16:14:58.823Z,5.15
2022-11-24T16:17:26.746Z,5.80
2022-11-24T16:20:00.180Z,4.55
2022-11-24T16:22:28.521Z,4.85
2022-11-24T16:24:56.551Z,5.85
2022-11-24T16:27:25.777Z,5.63
2022-11-24T16:29:54.166Z,6.40
2022-11-24T16:32:22.014Z,5.90
2022-11-24T16:34:49.932Z,4.85
2022-11-24T16:37:17.825Z,4.82
2022-11-24T16:39:50.033Z,6.07
2022-11-24T16:42:18.616Z,5.82
2022-11-24T16:44:47.835Z,6.40
2022-11-24T16:47:16.832Z,6.05
2022-11-24T16:49:44.792Z,6.75
2022-11-24T16:52:13.052Z,9.93
2022-11-24T16:54:40.924Z,12.55
2022-11-24T16:57:14.502Z,9.77
2022-11-24T16:59:45.862Z,9.60
2022-11-24T17:02:15.237Z,7.78
2022-11-24T17:04:43.139Z,6.55
2022-11-24T17:07:11.064Z,5.03
2022-11-24T17:09:40.807Z,4.32
2022-11-24T17:12:08.813Z,4.05
2022-11-24T17:14:37.177Z,5.35
2022-11-24T17:17:05.279Z,4.10
2022-11-24T17:19:34.512Z,4.57
2022-11-24T17:22:02.406Z,4.60
2022-11-24T17:24:30.279Z,4.88
2022-11-24T17:26:58.084Z,5.07
2022-11-24T17:29:26.242Z,5.30
2022-11-24T17:31:54.129Z,5.35
2022-11-24T17:34:22.267Z,5.22
2022-11-24T17:36:51.703Z,6.18
2022-11-24T17:39:23.375Z,6.18
2022-11-24T17:41:52.947Z,5.00
2022-11-24T17:44:20.785Z,7.40
2022-11-24T17:46:49.005Z,6.18
2022-11-24T17:49:18.612Z,4.95
2022-11-24T17:51:50.635Z,5.53
2022-11-24T17:57:08.251Z,4.35
2022-11-24T17:59:36.109Z,4.53
2022-11-24T18:02:04.064Z,4.18
2022-11-24T18:04:31.893Z,4.82
2022-11-24T18:06:59.941Z,4.72
2022-11-24T18:09:29.141Z,4.30
2022-11-24T18:11:57.192Z,5.05
2022-11-24T18:14:25.299Z,4.30
2022-11-24T18:16:53.504Z,4.00
2022-11-24T18:19:21.370Z,4.25
2022-11-24T18:21:49.199Z,6.07
2022-11-24T18:24:21.168Z,4.47
2022-11-24T18:26:53.412Z,6.03
2022-11-24T18:29:21.960Z,4.47
2022-11-24T18:31:49.953Z,6.07
2022-11-24T18:34:17.967Z,4.82
2022-11-24T18:36:47.453Z,4.78
2022-11-24T18:39:17.913Z,4.55
2022-11-24T18:41:46.004Z,5.82
2022-11-24T18:44:15.225Z,5.25
2022-11-24T18:46:43.118Z,5.78
2022-11-24T18:49:11.006Z,5.35
2022-11-24T18:51:38.839Z,6.10
2022-11-24T18:54:06.913Z,6.65
2022-11-24T18:56:34.815Z,5.50
2022-11-24T18:59:03.081Z,5.28
2022-11-24T19:01:32.470Z,5.85
2022-11-24T19:04:01.783Z,5.65
2022-11-24T19:06:32.380Z,5.32
2022-11-24T19:09:01.258Z,4.95
2022-11-24T19:11:29.736Z,5.10
2022-11-24T19:13:57.970Z,4.82
2022-11-24T19:16:26.196Z,4.63
2022-11-24T19:18:57.381Z,5.18
2022-11-24T19:21:25.202Z,4.15
2022-11-24T19:23:53.553Z,4.65
2022-11-24T19:26:21.628Z,6.07
2022-11-24T19:28:49.481Z,5.28
2022-11-24T19:31:19.124Z,6.10
2022-11-24T19:33:47.078Z,7.00
2022-11-24T19:36:17.268Z,8.35
2022-11-24T19:38:50.061Z,10.38
2022-11-24T19:41:19.450Z,10.82
2022-11-24T19:43:47.492Z,10.13
2022-11-24T19:46:16.796Z,10.15
2022-11-24T19:48:45.699Z,7.07
2022-11-24T19:51:14.394Z,7.78
2022-11-24T19:53:43.714Z,6.95
2022-11-24T19:56:12.235Z,6.93
2022-11-24T19:58:40.648Z,5.80
2022-11-24T20:01:09.420Z,6.35
2022-11-24T20:03:37.921Z,7.50
2022-11-24T20:06:06.198Z,6.60
2022-11-24T20:08:35.049Z,6.95
2022-11-24T20:11:04.970Z,6.80
2022-11-24T20:13:33.020Z,5.65
2022-11-24T20:16:04.627Z,5.78
2022-11-24T20:18:38.896Z,5.65
2022-11-24T20:21:10.300Z,5.35
2022-11-24T20:23:38.456Z,6.50
2022-11-24T20:26:08.235Z,4.47
2022-11-24T20:28:36.886Z,3.63
2022-11-24T20:31:05.736Z,4.20
2022-11-24T20:33:34.716Z,4.70
2022-11-24T20:36:03.712Z,4.70
2022-11-24T20:38:31.709Z,4.70
2022-11-24T20:41:09.357Z,4.65
2022-11-24T20:43:37.448Z,4.80
2022-11-24T20:46:06.134Z,5.22
2022-11-24T20:48:34.577Z,4.90
2022-11-24T20:51:05.375Z,4.95
2022-11-24T20:53:33.313Z,4.80
2022-11-24T20:56:05.601Z,4.78
2022-11-24T20:58:36.274Z,4.65
2022-11-24T21:01:06.027Z,4.75
2022-11-24T21:03:38.345Z,4.13
2022-11-24T21:06:10.046Z,5.10
2022-11-24T21:08:38.909Z,5.18
2022-11-24T21:11:07.389Z,4.75
2022-11-24T21:13:37.167Z,5.38
2022-11-24T21:16:12.377Z,4.65
2022-11-24T21:18:40.313Z,4.75
2022-11-24T21:21:08.193Z,4.05
2022-11-24T21:23:36.208Z,4.68
2022-11-24T21:26:07.415Z,5.43
2022-11-24T21:28:38.641Z,6.00
2022-11-24T21:31:06.938Z,5.20
2022-11-24T21:33:34.781Z,4.85
2022-11-24T21:36:03.722Z,4.95
2022-11-24T21:38:31.876Z,4.50
2022-11-24T21:41:00.360Z,4.75
2022-11-24T21:43:28.810Z,5.13
2022-11-24T21:46:00.549Z,4.35
2022-11-24T21:48:28.419Z,5.00
2022-11-24T21:50:58.322Z,4.88
2022-11-24T21:53:26.418Z,5.53
2022-11-24T21:55:57.781Z,4.55
2022-11-24T21:58:26.053Z,4.97
2022-11-24T22:00:54.213Z,4.63
2022-11-24T22:03:23.464Z,4.50
2022-11-24T22:05:54.899Z,4.22
2022-11-24T22:08:24.110Z,4.68
2022-11-24T22:10:52.084Z,4.25
2022-11-24T22:13:20.135Z,6.05
2022-11-24T22:15:48.105Z,5.05
2022-11-24T22:18:15.910Z,4.30
2022-11-24T22:20:45.353Z,4.90
2022-11-24T22:23:13.729Z,4.55
2022-11-24T22:25:41.636Z,4.97
2022-11-24T22:28:09.422Z,4.57
2022-11-24T22:30:37.261Z,5.40
2022-11-24T22:33:05.432Z,4.93
2022-11-24T22:35:33.513Z,5.68
2022-11-24T22:38:02.996Z,4.22
2022-11-24T22:40:31.077Z,4.53
2022-11-24T22:42:59.447Z,4.50
2022-11-24T22:45:27.677Z,4.20
2022-11-24T22:47:55.650Z,4.45
2022-11-24T22:50:23.496Z,4.38
2022-11-24T22:52:51.375Z,4.35
2022-11-24T22:55:20.599Z,4.65
2022-11-24T22:57:48.996Z,4.80
2022-11-24T23:00:17.850Z,4.97
2022-11-24T23:02:46.036Z,5.35
2022-11-24T23:05:19.365Z,4.35
2022-11-24T23:07:50.643Z,4.45
2022-11-24T23:10:20.272Z,4.80
2022-11-24T23:12:49.874Z,4.60
2022-11-24T23:15:18.023Z,4.82
2022-11-24T23:17:46.086Z,3.78
2022-11-24T23:20:14.637Z,4.68
2022-11-24T23:22:42.576Z,4.55
2022-11-24T23:25:10.564Z,4.65
2022-11-24T23:27:39.982Z,4.25
2022-11-24T23:30:08.762Z,4.35
2022-11-24T23:32:36.847Z,4.65
2022-11-24T23:35:07.535Z,5.72
2022-11-24T23:38:06.001Z,4.45
2022-11-24T23:40:26.969Z,5.25
2022-11-24T23:42:56.390Z,4.25
2022-11-24T23:45:24.518Z,4.80
2022-11-24T23:47:54.025Z,4.47
2022-11-24T23:50:21.887Z,4.45
2022-11-24T23:52:49.695Z,3.78
2022-11-24T23:55:19.265Z,4.35
2022-11-24T23:57:47.086Z,4.13
